Time;durP1;ratioP1;P1;durP2;ratioP2;P2;SDS_P1;SDS_P2;PMS_P1;PMS_P2;Temp;Humidity;BMP_temperature;BMP_pressure;BME280_temperature;BME280_humidity;BME280_pressure;Samples;Min_cycle;Max_cycle;Signal;HPM_P1;HPM_P2
2023/03/23 00:01:21;;;;;;;26.25;13.35;;;;;;;8.94;100.00;99666.38;4994675;28;20345;-82
2023/03/23 00:03:49;;;;;;;27.48;13.75;;;;;;;8.95;100.00;99667.25;4994794;28;20038;-83
2023/03/23 00:06:17;;;;;;;23.75;12.20;;;;;;;9.00;100.00;99668.34;4978112;28;20095;-85
2023/03/23 00:08:48;;;;;;;20.15;13.32;;;;;;;8.98;100.00;99661.53;4994397;28;20022;-84
2023/03/23 00:11:18;;;;;;;24.55;15.23;;;;;;;8.92;100.00;99659.59;4994182;28;20029;-83
2023/03/23 00:13:45;;;;;;;26.27;14.18;;;;;;;8.97;100.00;99657.25;4994298;28;20073;-85
2023/03/23 00:16:17;;;;;;;26.52;14.15;;;;;;;8.98;100.00;99661.53;4991195;28;20037;-84
2023/03/23 00:18:53;;;;;;;31.00;14.88;;;;;;;8.90;100.00;99654.47;5007600;28;20509;-83
2023/03/23 00:21:33;;;;;;;25.15;14.85;;;;;;;8.89;100.00;99650.13;4994330;28;20467;-83
2023/03/23 00:24:15;;;;;;;25.25;13.10;;;;;;;9.00;100.00;99651.56;4994473;28;20046;-84
2023/03/23 00:26:42;;;;;;;28.02;14.25;;;;;;;9.01;100.00;99661.19;4978064;28;20026;-84
2023/03/23 00:29:13;;;;;;;24.85;13.88;;;;;;;8.91;100.00;99648.13;5002221;28;20041;-84
2023/03/23 00:31:39;;;;;;;25.77;13.93;;;;;;;8.96;100.00;99653.72;5009703;28;20038;-85
2023/03/23 00:34:05;;;;;;;;;;;;;;;8.95;100.00;99660.06;4994295;28;20036;-84
2023/03/23 00:36:34;;;;;;;29.15;15.27;;;;;;;8.91;100.00;99663.28;4993893;28;19909;-83
2023/03/23 00:39:01;;;;;;;24.65;15.35;;;;;;;8.88;100.00;99669.78;5010152;28;20117;-86
2023/03/23 00:41:28;;;;;;;30.30;15.25;;;;;;;8.89;100.00;99671.41;4977661;28;20034;-83
2023/03/23 00:43:54;;;;;;;;;;;;;;;8.93;100.00;99679.91;4994048;28;20038;-83
2023/03/23 00:46:20;;;;;;;30.33;14.60;;;;;;;8.86;100.00;99677.94;4978284;28;19920;-87
2023/03/23 00:48:46;;;;;;;34.53;16.17;;;;;;;8.92;100.00;99679.06;4995076;28;20085;-84
2023/03/23 00:51:12;;;;;;;26.48;15.07;;;;;;;8.91;100.00;99681.91;4995138;28;20042;-84
2023/03/23 00:53:40;;;;;;;30.13;16.75;;;;;;;8.85;100.00;99680.78;4991214;28;20036;-84
2023/03/23 00:56:08;;;;;;;35.03;16.17;;;;;;;8.85;100.00;99678.94;4994018;28;20227;-84
2023/03/23 00:58:33;;;;;;;26.55;15.68;;;;;;;8.82;100.00;99686.44;4993794;28;20053;-84
2023/03/23 01:00:59;;;;;;;26.90;16.57;;;;;;;8.83;100.00;99683.63;5001530;28;20818;-85
2023/03/23 01:03:25;;;;;;;28.40;16.30;;;;;;;8.86;100.00;99690.41;4982998;28;20087;-87
2023/03/23 01:05:51;;;;;;;34.60;17.45;;;;;;;8.78;100.00;99683.31;4993936;28;20033;-84
2023/03/23 01:08:18;;;;;;;31.05;18.15;;;;;;;8.80;100.00;99683.97;4994042;28;20030;-86
2023/03/23 01:10:45;;;;;;;28.25;15.85;;;;;;;8.76;100.00;99677.34;5007491;28;20052;-84
2023/03/23 01:13:10;;;;;;;;;;;;;;;8.76;100.00;99669.38;4978494;28;20021;-85
2023/03/23 01:15:36;;;;;;;30.00;16.63;;;;;;;8.80;100.00;99678.66;4993906;28;19920;-85
2023/03/23 01:18:02;;;;;;;31.03;16.47;;;;;;;8.78;100.00;99679.81;5009884;28;20037;-86
2023/03/23 01:20:30;;;;;;;28.83;17.13;;;;;;;8.81;100.00;99677.63;4993427;28;20300;-84
2023/03/23 01:23:02;;;;;;;29.35;16.02;;;;;;;8.73;100.00;99675.00;4977429;28;20046;-86
2023/03/23 01:25:30;;;;;;;29.38;18.10;;;;;;;8.71;100.00;99684.19;4988720;28;20046;-85
2023/03/23 01:27:55;;;;;;;32.53;18.73;;;;;;;8.70;100.00;99678.03;4996523;28;20026;-85
2023/03/23 01:30:22;;;;;;;35.65;19.85;;;;;;;8.72;100.00;99676.03;4993028;28;20037;-85
2023/03/23 01:32:47;;;;;;;29.85;17.08;;;;;;;8.72;100.00;99670.72;4993413;28;20038;-85
2023/03/23 01:35:13;;;;;;;34.63;18.53;;;;;;;8.74;100.00;99673.22;4986540;28;20061;-85
2023/03/23 01:37:39;;;;;;;34.45;19.38;;;;;;;8.69;100.00;99660.44;4994334;28;20022;-85
2023/03/23 01:40:06;;;;;;;36.33;19.60;;;;;;;8.63;100.00;99655.81;4993232;28;20107;-85
2023/03/23 01:42:35;;;;;;;30.20;17.58;;;;;;;8.62;100.00;99648.84;4994681;28;20029;-85
2023/03/23 01:45:20;;;;;;;31.05;16.17;;;;;;;8.68;100.00;99658.75;4999102;28;20067;-85
2023/03/23 01:47:53;;;;;;;39.40;21.23;;;;;;;8.72;100.00;99659.25;4985146;28;20034;-85
2023/03/23 01:50:22;;;;;;;29.88;18.38;;;;;;;8.70;100.00;99651.44;4998259;28;20123;-85
2023/03/23 01:52:51;;;;;;;44.08;19.98;;;;;;;8.65;100.00;99649.28;4997912;28;20033;-84
2023/03/23 01:55:17;;;;;;;37.42;18.92;;;;;;;8.61;100.00;99649.81;4997302;28;20034;-86
2023/03/23 01:57:43;;;;;;;36.20;20.50;;;;;;;8.57;100.00;99645.84;5011485;28;20814;-86
2023/03/23 02:00:14;;;;;;;36.95;19.95;;;;;;;8.52;100.00;99642.91;5002982;28;20053;-85
2023/03/23 02:02:42;;;;;;;36.78;19.15;;;;;;;8.60;100.00;99657.00;5004592;28;20037;-87
2023/03/23 02:05:12;;;;;;;40.53;20.50;;;;;;;8.59;100.00;99641.19;5002378;28;20053;-85
2023/03/23 02:07:40;;;;;;;36.97;19.95;;;;;;;8.61;100.00;99628.53;5000578;28;20029;-85
2023/03/23 02:10:07;;;;;;;32.63;19.27;;;;;;;8.65;100.00;99630.66;5008239;28;20026;-84
2023/03/23 02:12:34;;;;;;;39.72;21.95;;;;;;;8.63;100.00;99624.69;5015001;28;20304;-86
2023/03/23 02:15:01;;;;;;;;;;;;;;;8.62;100.00;99627.56;5011258;28;20033;-86
2023/03/23 02:17:57;;;;;;;31.85;18.30;;;;;;;8.60;100.00;99617.06;5029914;28;20362;-86
2023/03/23 02:20:34;;;;;;;33.40;18.37;;;;;;;8.56;100.00;99613.09;5011339;28;20065;-85
2023/03/23 02:23:24;;;;;;;34.60;20.00;;;;;;;8.53;100.00;99621.44;5026572;28;20693;-86
2023/03/23 02:26:06;;;;;;;41.75;20.27;;;;;;;8.56;100.00;99638.91;4999399;28;20033;-84
2023/03/23 02:28:49;;;;;;;32.47;18.35;;;;;;;8.56;100.00;99634.41;4999614;28;20057;-85
2023/03/23 02:31:22;;;;;;;32.92;17.90;;;;;;;8.56;100.00;99621.09;4994293;28;20045;-85
2023/03/23 02:33:53;;;;;;;24.48;14.13;;;;;;;8.53;100.00;99586.88;5013034;28;20044;-84
2023/03/23 02:36:30;;;;;;;24.65;13.40;;;;;;;8.57;100.00;99603.28;4991114;28;20632;-85
2023/03/23 02:39:21;;;;;;;21.77;10.68;;;;;;;8.51;100.00;99598.69;4998620;28;20022;-85
2023/03/23 02:42:04;;;;;;;22.08;12.10;;;;;;;8.61;100.00;99589.44;4999011;28;20038;-85
2023/03/23 02:44:32;;;;;;;17.55;10.55;;;;;;;8.54;100.00;99572.56;4999004;28;20482;-85
2023/03/23 02:47:02;;;;;;;16.85;9.65;;;;;;;8.55;100.00;99555.59;5015456;28;20504;-85
2023/03/23 02:49:32;;;;;;;16.70;10.20;;;;;;;8.53;100.00;99543.50;4998531;28;20018;-85
2023/03/23 02:52:01;;;;;;;21.10;11.82;;;;;;;8.55;100.00;99554.78;5015142;28;20037;-85
2023/03/23 02:54:28;;;;;;;23.05;12.95;;;;;;;8.51;100.00;99548.16;4991683;28;20033;-85
2023/03/23 02:56:55;;;;;;;28.92;15.35;;;;;;;8.55;100.00;99552.13;4994050;28;20032;-84
2023/03/23 02:59:25;;;;;;;31.85;15.15;;;;;;;8.56;100.00;99533.28;4995015;28;20033;-84
2023/03/23 03:01:59;;;;;;;33.17;17.33;;;;;;;8.41;100.00;99498.69;4995257;28;20034;-84
2023/03/23 03:04:28;;;;;;;34.03;19.38;;;;;;;8.42;100.00;99513.63;4995502;28;20486;-84
2023/03/23 03:07:05;;;;;;;36.28;18.83;;;;;;;8.54;100.00;99530.00;4995257;28;20131;-84
2023/03/23 03:09:50;;;;;;;43.67;20.35;;;;;;;8.48;100.00;99525.41;4995008;28;20034;-85
2023/03/23 03:12:27;;;;;;;36.83;18.60;;;;;;;8.52;100.00;99531.16;4995449;28;20091;-85
2023/03/23 03:15:07;;;;;;;38.92;19.73;;;;;;;8.50;100.00;99546.47;5011672;28;20095;-84
2023/03/23 03:17:39;;;;;;;40.42;20.02;;;;;;;8.47;100.00;99554.81;4995633;28;20486;-84
2023/03/23 03:20:10;;;;;;;27.75;13.70;;;;;;;8.46;100.00;99554.00;4994893;28;20021;-85
2023/03/23 03:22:41;;;;;;;24.38;12.07;;;;;;;8.39;100.00;99553.84;4992572;28;20026;-84
2023/03/23 03:25:12;;;;;;;23.67;11.80;;;;;;;8.39;100.00;99524.59;4996179;28;20041;-85
2023/03/23 03:27:40;;;;;;;13.48;7.57;;;;;;;8.32;100.00;99538.78;4979167;28;20030;-85
2023/03/23 03:30:17;;;;;;;14.82;6.72;;;;;;;8.20;100.00;99509.13;4992166;28;20034;-85
2023/03/23 03:32:50;;;;;;;7.80;4.85;;;;;;;8.08;100.00;99489.25;4989544;28;20046;-85
2023/03/23 03:35:17;;;;;;;11.23;5.70;;;;;;;8.04;100.00;99494.94;4995151;28;20490;-85
2023/03/23 03:37:44;;;;;;;11.63;6.45;;;;;;;7.99;100.00;99489.31;4979389;28;20033;-85
2023/03/23 03:40:14;;;;;;;11.52;6.07;;;;;;;7.86;100.00;99478.44;4994962;28;20393;-84
2023/03/23 03:42:42;;;;;;;12.00;7.35;;;;;;;7.81;100.00;99463.03;4995724;28;20030;-85
2023/03/23 03:45:13;;;;;;;10.80;6.50;;;;;;;7.77;100.00;99458.22;4995095;28;20120;-85
2023/03/23 03:47:38;;;;;;;13.63;7.18;;;;;;;7.69;100.00;99443.19;5012190;28;20647;-85
2023/03/23 03:50:05;;;;;;;14.98;7.22;;;;;;;7.74;100.00;99458.59;5011630;28;20105;-85
2023/03/23 03:52:31;;;;;;;18.38;8.30;;;;;;;7.68;100.00;99461.94;4978870;28;20060;-85
2023/03/23 03:54:57;;;;;;;14.95;7.82;;;;;;;7.67;100.00;99466.44;4994966;28;20521;-85
2023/03/23 03:57:23;;;;;;;13.70;7.65;;;;;;;7.73;100.00;99462.28;4995533;28;20080;-85
2023/03/23 04:00:13;;;;;;;15.02;7.00;;;;;;;7.74;100.00;99454.09;5011309;28;20034;-85
2023/03/23 04:02:50;;;;;;;13.43;7.53;;;;;;;7.81;100.00;99454.22;5011133;28;20030;-85
2023/03/23 04:05:18;;;;;;;23.02;8.85;;;;;;;7.79;100.00;99445.59;4994792;28;20057;-85
2023/03/23 04:07:45;;;;;;;23.95;11.73;;;;;;;7.76;100.00;99424.72;4994860;28;20029;-85
2023/03/23 04:10:12;;;;;;;;;;;;;;;8.02;100.00;99441.13;4995098;28;20029;-84
2023/03/23 04:12:45;;;;;;;25.45;12.50;;;;;;;8.17;100.00;99491.69;4979188;28;19921;-85
2023/03/23 04:15:34;;;;;;;12.18;6.72;;;;;;;8.07;100.00;99530.97;4975322;28;20046;-84
2023/03/23 04:17:59;;;;;;;8.73;4.32;;;;;;;7.91;100.00;99517.78;4978947;28;20038;-85
2023/03/23 04:20:26;;;;;;;5.68;3.47;;;;;;;7.87;100.00;99511.19;4995306;28;20022;-85
2023/03/23 04:22:54;;;;;;;6.82;2.85;;;;;;;7.81;100.00;99500.22;4994800;28;20030;-85
2023/03/23 04:25:21;;;;;;;7.05;2.63;;;;;;;7.74;100.00;99507.25;4995155;28;20030;-85
2023/03/23 04:27:53;;;;;;;5.65;2.33;;;;;;;7.79;100.00;99510.19;4992444;28;20510;-85
2023/03/23 04:30:24;;;;;;;5.57;2.60;;;;;;;7.69;100.00;99498.97;4980691;28;20045;-85
2023/03/23 04:33:21;;;;;;;8.25;2.15;;;;;;;7.66;100.00;99493.19;4944566;29;20124;-85
2023/03/23 04:35:47;;;;;;;4.68;2.28;;;;;;;7.60;100.00;99494.69;4906624;29;20050;-85
2023/03/23 04:38:20;;;;;;;4.03;2.20;;;;;;;7.61;100.00;99515.78;4901189;29;20036;-85
2023/03/23 04:40:53;;;;;;;3.10;2.00;;;;;;;7.60;100.00;99518.59;4916945;29;21028;-85
2023/03/23 04:43:32;;;;;;;4.20;2.50;;;;;;;7.50;100.00;99494.91;4902584;29;20055;-85
2023/03/23 04:46:08;;;;;;;5.47;2.42;;;;;;;7.42;100.00;99463.06;4917266;29;20039;-85
2023/03/23 04:48:34;;;;;;;4.88;2.78;;;;;;;7.35;100.00;99464.75;4917214;29;20027;-85
2023/03/23 04:51:07;;;;;;;3.42;2.10;;;;;;;7.28;100.00;99448.72;4902683;29;20091;-85
2023/03/23 04:53:35;;;;;;;4.05;2.10;;;;;;;7.41;100.00;99469.41;4916641;29;20523;-86
2023/03/23 04:56:01;;;;;;;4.50;2.47;;;;;;;7.32;100.00;99444.69;4900565;29;20067;-85
2023/03/23 04:58:33;;;;;;;4.03;2.60;;;;;;;7.27;100.00;99459.50;4901182;29;20116;-85
2023/03/23 05:01:29;;;;;;;5.18;2.13;;;;;;;7.30;100.00;99464.47;4889248;29;20072;-85
2023/03/23 05:04:08;;;;;;;3.40;2.00;;;;;;;7.24;100.00;99457.22;4894855;29;20047;-85
2023/03/23 05:06:34;;;;;;;6.65;2.30;;;;;;;7.18;100.00;99443.59;4894396;29;20044;-85
2023/03/23 05:09:06;;;;;;;3.85;2.35;;;;;;;7.15;100.00;99456.41;4891627;29;20019;-85
2023/03/23 05:11:32;;;;;;;9.65;2.78;;;;;;;7.18;100.00;99469.31;4953552;28;20058;-85
2023/03/23 05:13:57;;;;;;;3.83;2.37;;;;;;;7.12;100.00;99459.41;4938335;28;20039;-85
2023/03/23 05:16:22;;;;;;;8.27;3.60;;;;;;;6.97;100.00;99441.53;4952342;28;20039;-85
2023/03/23 05:18:48;;;;;;;9.73;3.13;;;;;;;7.08;100.00;99448.28;4950883;28;21110;-85
2023/03/23 05:21:15;;;;;;;3.33;2.45;;;;;;;7.17;100.00;99452.56;4951227;28;20078;-85
2023/03/23 05:23:47;;;;;;;5.85;2.10;;;;;;;7.17;100.00;99449.91;4966703;28;20535;-85
2023/03/23 05:26:17;;;;;;;5.18;2.30;;;;;;;7.15;100.00;99457.22;4951308;28;20424;-85
2023/03/23 05:28:43;;;;;;;6.47;2.85;;;;;;;7.29;100.00;99452.19;4950785;28;20042;-85
2023/03/23 05:31:16;;;;;;;7.85;3.58;;;;;;;7.31;100.00;99442.25;4955693;28;20061;-85
2023/03/23 05:33:41;;;;;;;12.40;7.32;;;;;;;7.35;100.00;99438.22;4970470;28;20030;-85
2023/03/23 05:36:13;;;;;;;14.73;8.43;;;;;;;7.61;100.00;99448.56;4967164;28;20035;-86
2023/03/23 05:39:11;;;;;;;19.50;11.52;;;;;;;7.76;100.00;99449.44;4958474;28;20053;-85
2023/03/23 05:42:07;;;;;;;22.67;13.40;;;;;;;7.92;100.00;99435.22;4979170;28;20038;-85
2023/03/23 05:44:43;;;;;;;24.15;14.18;;;;;;;7.98;100.00;99434.53;4982420;28;20038;-84
2023/03/23 05:47:09;;;;;;;24.02;15.35;;;;;;;8.03;100.00;99437.47;4982320;28;20037;-85
2023/03/23 05:49:38;;;;;;;24.40;14.50;;;;;;;8.03;100.00;99426.03;4954956;28;20026;-85
2023/03/23 05:52:05;;;;;;;33.30;18.83;;;;;;;8.27;100.00;99430.31;4970077;28;20389;-85
2023/03/23 05:54:31;;;;;;;37.75;22.33;;;;;;;8.43;100.00;99435.50;4974246;28;20479;-85
2023/03/23 05:56:57;;;;;;;37.07;21.87;;;;;;;8.49;100.00;99420.66;4987020;28;20050;-85
2023/03/23 05:59:36;;;;;;;39.28;23.52;;;;;;;8.72;100.00;99420.56;4985639;28;20314;-85
2023/03/23 06:02:04;;;;;;;40.97;24.05;;;;;;;8.75;100.00;99430.84;4970317;28;20043;-85
2023/03/23 06:04:29;;;;;;;37.45;23.13;;;;;;;8.80;100.00;99428.50;4954745;28;20043;-85
2023/03/23 06:07:07;;;;;;;41.17;23.27;;;;;;;8.90;100.00;99416.72;4978854;28;20110;-84
2023/03/23 06:09:34;;;;;;;36.80;22.60;;;;;;;8.93;100.00;99427.00;4982386;28;20031;-85
2023/03/23 06:12:20;;;;;;;36.20;22.05;;;;;;;8.99;100.00;99419.13;4957865;28;20113;-85
2023/03/23 06:15:00;;;;;;;32.30;22.13;;;;;;;9.04;100.00;99407.91;4991384;28;20050;-86
2023/03/23 06:17:43;;;;;;;35.80;22.27;;;;;;;9.03;100.00;99409.72;5013289;28;20021;-87
2023/03/23 06:20:09;;;;;;;30.00;20.83;;;;;;;9.16;100.00;99417.06;4990847;28;20570;-86
2023/03/23 06:22:37;;;;;;;33.83;20.60;;;;;;;9.16;100.00;99393.13;4993590;28;20097;-85
2023/03/23 06:25:13;;;;;;;28.10;19.45;;;;;;;9.23;100.00;99395.88;5006369;28;20125;-86
2023/03/23 06:27:41;;;;;;;29.23;20.33;;;;;;;9.15;100.00;99380.78;4978294;28;20390;-85
2023/03/23 06:30:08;;;;;;;;;;;;;;;9.25;100.00;99399.16;5002195;28;20030;-86
2023/03/23 06:32:34;;;;;;;31.30;19.55;;;;;;;9.37;100.00;99396.84;4993750;28;19925;-85
2023/03/23 06:35:09;;;;;;;27.77;18.13;;;;;;;9.56;100.00;99408.72;4995915;28;21042;-86
2023/03/23 06:38:01;;;;;;;28.27;19.60;;;;;;;9.61;100.00;99395.66;4929498;29;20146;-76
2023/03/23 06:40:37;;;;;;;26.55;18.08;;;;;;;9.57;100.00;99391.72;4929637;29;20071;-74
2023/03/23 06:43:04;;;;;;;31.42;19.05;;;;;;;9.59;100.00;99385.19;4926350;29;20998;-75
2023/03/23 06:45:48;;;;;;;26.00;18.98;;;;;;;9.49;100.00;99376.69;4938550;29;20531;-75
2023/03/23 06:48:39;;;;;;;25.88;17.65;;;;;;;9.75;100.00;99375.31;4933289;29;20208;-74
2023/03/23 06:51:05;;;;;;;;;;;;;;;10.34;100.00;99383.00;4946185;28;20038;-74
2023/03/23 06:53:33;;;;;;;21.55;16.20;;;;;;;10.54;100.00;99375.97;4945718;28;19910;-75
2023/03/23 06:55:59;;;;;;;21.63;15.43;;;;;;;10.87;100.00;99367.31;4944880;28;20032;-75
2023/03/23 06:58:25;;;;;;;25.23;16.67;;;;;;;10.68;100.00;99354.69;4945238;28;20521;-76
2023/03/23 07:00:56;;;;;;;23.90;15.27;;;;;;;11.12;100.00;99358.78;4945929;28;20032;-76
2023/03/23 07:03:23;;;;;;;18.67;14.48;;;;;;;10.88;100.00;99341.44;4945842;28;20078;-76
2023/03/23 07:05:49;;;;;;;21.48;13.95;;;;;;;10.59;100.00;99326.53;4944982;28;20293;-74
2023/03/23 07:08:17;;;;;;;17.73;12.88;;;;;;;10.50;100.00;99340.00;4945270;28;20449;-76
2023/03/23 07:10:52;;;;;;;18.73;13.35;;;;;;;10.33;100.00;99328.84;4945707;28;20398;-75
2023/03/23 07:13:18;;;;;;;17.13;12.98;;;;;;;10.26;100.00;99338.59;4945502;28;20087;-75
2023/03/23 07:15:50;;;;;;;18.33;12.57;;;;;;;10.23;100.00;99323.00;4926553;29;20476;-74
2023/03/23 07:18:16;;;;;;;22.67;14.80;;;;;;;10.28;100.00;99343.75;4945439;28;20028;-76
2023/03/23 07:20:48;;;;;;;18.75;12.55;;;;;;;10.17;100.00;99333.63;4945552;28;20444;-75
2023/03/23 07:23:15;;;;;;;17.10;13.02;;;;;;;10.15;100.00;99344.47;4945230;28;20066;-74
2023/03/23 07:25:46;;;;;;;17.65;13.98;;;;;;;10.23;100.00;99335.47;4953316;28;20023;-74
2023/03/23 07:28:16;;;;;;;16.17;11.55;;;;;;;10.29;100.00;99321.41;4944778;28;20028;-75
2023/03/23 07:30:42;;;;;;;18.02;12.20;;;;;;;10.29;100.00;99340.09;4945107;28;20039;-74
2023/03/23 07:33:09;;;;;;;21.10;13.75;;;;;;;10.38;100.00;99335.44;4944742;28;20035;-74
2023/03/23 07:35:35;;;;;;;17.38;11.65;;;;;;;10.36;100.00;99348.94;4940320;29;20042;-75
2023/03/23 07:38:05;;;;;;;15.35;12.00;;;;;;;10.40;100.00;99355.56;4947857;28;20102;-75
2023/03/23 07:40:33;;;;;;;17.33;12.13;;;;;;;10.44;100.00;99367.50;4943462;28;20032;-76
2023/03/23 07:43:03;;;;;;;23.92;14.30;;;;;;;10.34;100.00;99367.00;4940206;28;20036;-75
2023/03/23 07:45:39;;;;;;;17.98;11.55;;;;;;;10.13;100.00;99365.97;4945014;28;20028;-75
2023/03/23 07:48:05;;;;;;;18.75;12.57;;;;;;;10.03;100.00;99378.03;4944638;28;20115;-76
2023/03/23 07:50:32;;;;;;;15.70;11.32;;;;;;;10.06;100.00;99394.44;4944766;28;20059;-76
2023/03/23 07:52:58;;;;;;;21.92;14.07;;;;;;;9.90;100.00;99389.38;4948284;28;20035;-75
2023/03/23 07:55:27;;;;;;;15.50;11.00;;;;;;;9.81;100.00;99412.69;4947642;28;20511;-75
2023/03/23 07:58:16;;;;;;;18.85;8.68;;;;;;;9.77;100.00;99421.25;4932554;29;20130;-76
2023/03/23 08:00:42;;;;;;;12.95;7.45;;;;;;;9.77;100.00;99430.06;4950749;28;20031;-74
2023/03/23 08:03:08;;;;;;;11.02;6.22;;;;;;;9.65;100.00;99416.41;4947426;28;20459;-75
2023/03/23 08:05:43;;;;;;;8.23;5.72;;;;;;;9.50;100.00;99399.63;4947196;28;20057;-75
2023/03/23 08:08:12;;;;;;;13.65;3.97;;;;;;;9.41;100.00;99374.97;4935896;29;20142;-75
2023/03/23 08:11:00;;;;;;;10.00;4.47;;;;;;;9.34;100.00;99375.91;4935067;29;20085;-75
2023/03/23 08:13:45;;;;;;;7.30;2.97;;;;;;;9.35;100.00;99373.06;4932766;29;20078;-74
2023/03/23 08:16:33;;;;;;;7.47;3.13;;;;;;;9.41;100.00;99371.47;4941404;28;20090;-75
2023/03/23 08:19:22;;;;;;;8.38;3.83;;;;;;;9.52;100.00;99371.78;4947109;28;20051;-76
2023/03/23 08:22:07;;;;;;;8.10;2.38;;;;;;;9.63;100.00;99373.13;4910637;29;20067;-75
2023/03/23 08:24:42;;;;;;;9.57;3.38;;;;;;;9.97;100.00;99362.78;4935622;29;20031;-75
2023/03/23 08:27:23;;;;;;;12.02;2.70;;;;;;;10.40;100.00;99350.22;4929912;29;20027;-76
2023/03/23 08:30:17;;;;;;;10.95;2.50;;;;;;;10.39;100.00;99316.53;4924659;29;20078;-75
2023/03/23 08:33:00;;;;;;;10.35;2.28;;;;;;;10.67;100.00;99276.44;4934502;29;20058;-75
2023/03/23 08:36:00;;;;;;;15.57;2.33;;;;;;;11.67;100.00;99314.09;4932281;28;20050;-75
2023/03/23 08:38:52;;;;;;;9.77;2.92;;;;;;;12.32;100.00;99268.00;4948548;28;20288;-76
2023/03/23 08:41:20;;;;;;;11.65;3.20;;;;;;;11.67;100.00;99169.75;4936769;28;20043;-76
2023/03/23 08:43:48;;;;;;;12.35;3.47;;;;;;;11.65;100.00;99157.63;4932916;29;20027;-75
2023/03/23 08:46:13;;;;;;;13.03;3.97;;;;;;;11.51;100.00;99132.75;4934695;28;20050;-75
2023/03/23 08:48:59;;;;;;;5.97;2.20;;;;;;;11.81;100.00;99187.41;4948352;28;20032;-74
2023/03/23 08:51:43;;;;;;;8.82;2.47;;;;;;;12.07;100.00;99148.28;4946869;28;20078;-76
2023/03/23 08:54:22;;;;;;;9.27;2.42;;;;;;;11.45;100.00;99122.91;4947773;28;20504;-76
2023/03/23 08:57:24;;;;;;;7.70;2.50;;;;;;;11.44;100.00;99148.00;4887118;29;20244;-75
2023/03/23 09:00:18;;;;;;;5.20;2.13;;;;;;;11.43;100.00;99165.88;4921932;29;20051;-76
2023/03/23 09:02:59;;;;;;;9.95;2.90;;;;;;;11.10;100.00;99152.53;4946276;28;20134;-76
2023/03/23 09:05:32;;;;;;;8.10;2.72;;;;;;;11.37;100.00;99196.91;4949792;28;20589;-76
2023/03/23 09:08:03;;;;;;;8.57;2.88;;;;;;;11.03;100.00;99157.00;4934516;29;20063;-75
2023/03/23 09:10:32;;;;;;;5.97;2.78;;;;;;;11.15;100.00;99200.81;4931642;29;20572;-74
2023/03/23 09:12:58;;;;;;;7.10;2.30;;;;;;;11.43;100.00;99194.47;4946118;28;20030;-75
2023/03/23 09:15:24;;;;;;;5.93;2.05;;;;;;;11.69;100.00;99175.72;4932748;29;20429;-75
2023/03/23 09:17:53;;;;;;;6.47;2.45;;;;;;;11.65;100.00;99139.72;4947075;28;20035;-75
2023/03/23 09:20:22;;;;;;;8.50;3.05;;;;;;;11.48;100.00;99128.66;4951102;28;20042;-76
2023/03/23 09:22:50;;;;;;;8.55;3.50;;;;;;;11.51;100.00;99120.22;4943025;28;20050;-76
2023/03/23 09:25:20;;;;;;;11.13;2.70;;;;;;;11.58;100.00;99126.38;4933754;28;20063;-76
2023/03/23 09:27:47;;;;;;;6.63;2.92;;;;;;;11.34;100.00;99143.88;4946641;28;20485;-76
2023/03/23 09:30:14;;;;;;;9.68;2.53;;;;;;;11.27;100.00;99156.41;4933698;28;20027;-76
2023/03/23 09:32:40;;;;;;;9.45;2.67;;;;;;;11.25;100.00;99133.63;4934766;29;20370;-76
2023/03/23 09:35:09;;;;;;;6.88;2.50;;;;;;;11.51;100.00;99180.88;4946064;28;20087;-77
2023/03/23 09:37:35;;;;;;;17.63;3.75;;;;;;;11.60;100.00;99159.06;4926403;29;20122;-76
2023/03/23 09:40:03;;;;;;;6.57;2.55;;;;;;;11.86;100.00;99153.88;4947932;28;20038;-76
2023/03/23 09:42:38;;;;;;;10.73;3.35;;;;;;;12.15;100.00;99110.63;4943251;28;20059;-75
2023/03/23 09:45:10;;;;;;;9.48;2.33;;;;;;;12.92;100.00;98983.84;4945656;28;20487;-75
2023/03/23 09:48:24;;;;;;;8.98;2.70;;;;;;;14.05;100.00;98894.03;4942064;28;20544;-76
2023/03/23 09:50:56;;;;;;;9.52;3.33;;;;;;;13.65;100.00;98489.72;4909626;29;20153;-76
2023/03/23 09:53:38;;;;;;;13.65;2.40;;;;;;;13.79;100.00;98412.47;4912762;29;20082;-77
2023/03/23 09:56:11;;;;;;;9.48;2.17;;;;;;;13.47;100.00;98284.31;4912575;29;20203;-75
2023/03/23 09:58:51;;;;;;;13.02;2.97;;;;;;;13.37;100.00;98145.59;4909350;29;20123;-76
2023/03/23 10:01:23;;;;;;;12.77;2.20;;;;;;;13.09;100.00;98184.75;4912826;29;20172;-76
2023/03/23 10:03:55;;;;;;;7.55;2.10;;;;;;;13.22;100.00;98172.91;4915895;29;20051;-75
2023/03/23 10:06:21;;;;;;;16.85;2.47;;;;;;;13.55;100.00;98224.13;4898660;29;20039;-76
2023/03/23 10:08:50;;;;;;;11.85;2.17;;;;;;;13.36;100.00;98087.69;4916350;29;20039;-76
2023/03/23 10:11:27;;;;;;;15.48;3.10;;;;;;;13.57;100.00;98179.94;4912015;29;20505;-76
2023/03/23 10:13:58;;;;;;;7.45;1.90;;;;;;;13.41;100.00;97776.91;4914454;29;20083;-76
2023/03/23 10:16:32;;;;;;;9.95;3.17;;;;;;;13.31;100.00;97790.19;4917403;29;20624;-75
2023/03/23 10:19:04;;;;;;;12.00;2.00;;;;;;;13.32;100.00;97810.56;4917940;29;20040;-76
2023/03/23 10:21:32;;;;;;;7.82;2.25;;;;;;;13.74;100.00;97930.56;4913143;29;20043;-76
2023/03/23 10:24:01;;;;;;;7.90;1.70;;;;;;;14.11;100.00;97935.22;4916131;29;20032;-75
2023/03/23 10:26:51;;;;;;;7.63;1.60;;;;;;;14.14;100.00;97737.00;4925415;29;20052;-76
2023/03/23 10:29:36;;;;;;;9.52;2.08;;;;;;;13.93;100.00;97612.69;4936056;29;20028;-76
2023/03/23 10:32:12;;;;;;;13.40;1.98;;;;;;;13.80;100.00;97486.34;4954998;28;20055;-76
2023/03/23 10:34:50;;;;;;;11.75;2.40;;;;;;;14.30;100.00;97594.88;4931130;29;20385;-75
2023/03/23 10:37:24;;;;;;;9.77;2.42;;;;;;;14.52;100.00;97616.94;4951162;28;20031;-76
2023/03/23 10:39:54;;;;;;;10.85;3.42;;;;;;;15.72;100.00;97646.38;4938076;29;20040;-76
2023/03/23 10:42:47;;;;;;;9.73;2.15;;;;;;;15.94;100.00;97541.94;4953955;28;20039;-76
2023/03/23 10:45:22;;;;;;;8.55;1.95;;;;;;;15.79;99.61;97168.16;4932307;29;20145;-75
2023/03/23 10:47:52;;;;;;;13.52;3.47;;;;;;;15.76;97.16;97051.22;4953023;28;20035;-76
2023/03/23 10:50:24;;;;;;;12.98;2.35;;;;;;;15.05;94.90;96770.59;4953627;28;20075;-76
2023/03/23 10:52:53;;;;;;;11.95;4.45;;;;;;;15.38;96.74;97125.47;4956690;28;20038;-75
2023/03/23 10:55:22;;;;;;;13.32;2.63;;;;;;;14.16;94.99;96725.41;4948617;28;20023;-75
2023/03/23 10:58:09;;;;;;;10.85;2.60;;;;;;;13.21;96.61;96807.84;4948376;28;20344;-75
2023/03/23 11:00:42;;;;;;;13.32;2.45;;;;;;;13.15;97.45;97022.38;4926423;29;20039;-75
2023/03/23 11:03:13;;;;;;;10.35;2.75;;;;;;;12.98;100.00;97248.38;4940083;28;20039;-76
2023/03/23 11:05:43;;;;;;;13.50;3.60;;;;;;;12.74;100.00;97325.66;4951603;28;20134;-74
2023/03/23 11:08:14;;;;;;;12.93;2.72;;;;;;;13.28;100.00;97557.63;4951284;28;20045;-75
2023/03/23 11:10:48;;;;;;;15.02;2.67;;;;;;;13.32;100.00;97564.06;4948466;28;20058;-76
2023/03/23 11:13:15;;;;;;;9.73;2.20;;;;;;;12.72;100.00;97266.22;4939286;28;20602;-75
2023/03/23 11:15:45;;;;;;;15.07;2.72;;;;;;;13.55;96.40;97256.56;4947458;28;20027;-76
2023/03/23 11:18:35;;;;;;;7.20;1.92;;;;;;;14.64;91.49;97103.19;4932244;28;20034;-75
2023/03/23 11:21:03;;;;;;;9.65;2.10;;;;;;;15.35;87.43;96945.97;4941912;28;20142;-75
2023/03/23 11:23:35;;;;;;;6.97;1.83;;;;;;;15.48;85.63;96812.81;4948518;28;20036;-75
2023/03/23 11:26:22;;;;;;;9.10;2.10;;;;;;;15.90;83.67;96793.09;4932525;29;20032;-75
2023/03/23 11:29:10;;;;;;;7.97;1.67;;;;;;;16.22;82.11;96772.66;4942490;28;20405;-75
2023/03/23 11:31:40;;;;;;;7.55;1.92;;;;;;;15.89;79.16;96345.03;4929401;29;20044;-75
2023/03/23 11:34:30;;;;;;;10.52;2.85;;;;;;;15.89;79.47;96597.84;4951025;28;20386;-76
2023/03/23 11:37:00;;;;;;;10.80;1.77;;;;;;;16.07;78.44;96528.13;4949757;28;20032;-75
2023/03/23 11:39:48;;;;;;;10.43;2.75;;;;;;;15.16;78.21;96242.09;4950808;28;20126;-74
2023/03/23 11:42:20;;;;;;;10.88;2.92;;;;;;;14.60;79.91;96434.56;4939104;28;20435;-74
2023/03/23 11:44:46;;;;;;;13.32;3.00;;;;;;;14.75;79.42;96465.75;4944915;28;20043;-74
2023/03/23 11:47:32;;;;;;;7.78;2.30;;;;;;;15.11;79.83;96650.47;4950344;28;20106;-75
2023/03/23 11:49:57;;;;;;;11.15;2.22;;;;;;;15.67;78.93;96818.97;4952895;28;20052;-75